createdAt,value
2022-09-26T00:01:23.891Z,3.07
2022-09-26T00:03:53.250Z,3.60
2022-09-26T00:06:21.444Z,4.67
2022-09-26T00:08:49.749Z,2.37
2022-09-26T00:11:29.205Z,6.77
2022-09-26T00:13:58.268Z,4.40
2022-09-26T00:16:25.260Z,3.40
2022-09-26T00:18:53.910Z,4.00
2022-09-26T00:21:21.618Z,4.17
2022-09-26T00:23:49.196Z,3.20
2022-09-26T00:26:18.529Z,4.23
2022-09-26T00:28:45.732Z,5.73
2022-09-26T00:31:16.043Z,4.17
2022-09-26T00:33:43.100Z,4.90
2022-09-26T00:36:09.937Z,5.47
2022-09-26T00:38:37.889Z,3.47
2022-09-26T00:41:05.607Z,3.67
2022-09-26T00:43:37.190Z,3.13
2022-09-26T00:46:21.754Z,4.50
2022-09-26T00:49:02.628Z,5.50
2022-09-26T00:51:29.641Z,6.13
2022-09-26T00:53:56.925Z,4.30
2022-09-26T00:56:31.906Z,4.93
2022-09-26T00:59:13.037Z,3.23
2022-09-26T01:01:39.965Z,6.03
2022-09-26T01:04:08.146Z,5.93
2022-09-26T01:06:35.314Z,6.07
2022-09-26T01:09:08.862Z,6.53
2022-09-26T01:11:41.126Z,3.73
2022-09-26T01:14:10.666Z,5.33
2022-09-26T01:16:39.308Z,5.63
2022-09-26T01:19:17.367Z,3.20
2022-09-26T01:22:02.550Z,3.93
2022-09-26T01:24:35.678Z,4.80
2022-09-26T01:27:34.767Z,3.03
2022-09-26T01:30:12.120Z,2.93
2022-09-26T01:33:00.887Z,4.23
2022-09-26T01:35:36.786Z,5.17
2022-09-26T01:38:37.168Z,3.57
2022-09-26T01:41:15.883Z,4.97
2022-09-26T01:43:45.803Z,3.37
2022-09-26T01:46:51.084Z,8.70
2022-09-26T01:49:26.392Z,3.57
2022-09-26T01:52:03.552Z,5.13
2022-09-26T01:54:37.946Z,4.63
2022-09-26T01:57:10.553Z,4.43
2022-09-26T01:59:53.123Z,3.70
2022-09-26T02:02:26.181Z,4.17
2022-09-26T02:04:58.578Z,6.57
2022-09-26T02:07:35.197Z,4.23
2022-09-26T02:10:26.394Z,6.73
2022-09-26T02:12:58.112Z,4.47
2022-09-26T02:15:26.937Z,5.20
2022-09-26T02:18:12.533Z,5.57
2022-09-26T02:20:43.851Z,7.20
2022-09-26T02:23:25.101Z,4.77
2022-09-26T02:25:51.891Z,4.63
2022-09-26T02:28:20.707Z,5.87
2022-09-26T02:30:49.701Z,9.63
2022-09-26T02:33:17.021Z,5.67
2022-09-26T02:35:56.468Z,5.27
2022-09-26T02:38:26.550Z,6.63
2022-09-26T02:41:00.345Z,5.73
2022-09-26T02:43:44.404Z,6.13
2022-09-26T02:46:38.394Z,3.77
2022-09-26T02:49:11.292Z,4.53
2022-09-26T02:52:09.800Z,7.37
2022-09-26T02:54:58.200Z,4.07
2022-09-26T02:57:48.107Z,6.10
2022-09-26T03:00:23.401Z,7.17
2022-09-26T03:02:55.396Z,8.23
2022-09-26T03:05:26.342Z,6.73
2022-09-26T03:07:53.072Z,5.60
2022-09-26T03:10:20.557Z,5.40
2022-09-26T03:12:49.303Z,8.13
2022-09-26T03:15:17.808Z,6.30
2022-09-26T03:17:49.677Z,6.63
2022-09-26T03:20:20.330Z,9.30
2022-09-26T03:22:48.040Z,8.60
2022-09-26T03:25:18.531Z,5.60
2022-09-26T03:27:45.816Z,10.77
2022-09-26T03:30:14.129Z,6.00
2022-09-26T03:32:40.907Z,7.50
2022-09-26T03:35:08.676Z,9.53
2022-09-26T03:37:37.305Z,8.60
2022-09-26T03:40:06.041Z,10.03
2022-09-26T03:42:33.567Z,7.90
2022-09-26T03:45:01.485Z,7.33
2022-09-26T03:47:28.969Z,6.53
2022-09-26T03:49:56.201Z,5.97
2022-09-26T03:52:24.343Z,8.63
2022-09-26T03:54:51.113Z,5.00
2022-09-26T03:57:18.458Z,6.43
2022-09-26T03:59:45.645Z,5.37
2022-09-26T04:02:13.977Z,6.40
2022-09-26T04:04:40.708Z,4.57
2022-09-26T04:07:07.440Z,6.77
2022-09-26T04:09:34.186Z,4.97
2022-09-26T04:12:01.111Z,7.23
2022-09-26T04:14:27.888Z,4.57
2022-09-26T04:16:54.613Z,6.50
2022-09-26T04:19:21.370Z,6.50
2022-09-26T04:21:48.575Z,5.97
2022-09-26T04:24:16.465Z,4.37
2022-09-26T04:26:44.451Z,6.93
2022-09-26T04:29:11.779Z,6.27
2022-09-26T04:31:39.429Z,4.37
2022-09-26T04:34:06.457Z,6.10
2022-09-26T04:36:33.570Z,6.07
2022-09-26T04:39:00.995Z,7.53
2022-09-26T04:41:29.032Z,8.20
2022-09-26T04:43:57.135Z,7.40
2022-09-26T04:46:30.659Z,7.47
2022-09-26T04:49:00.219Z,6.40
2022-09-26T04:51:29.295Z,7.23
2022-09-26T04:53:56.400Z,6.10
2022-09-26T04:56:26.219Z,5.67
2022-09-26T04:58:55.815Z,7.83
2022-09-26T05:01:23.576Z,5.13
2022-09-26T05:03:50.462Z,5.07
2022-09-26T05:06:17.848Z,6.30
2022-09-26T05:08:46.497Z,6.33
2022-09-26T05:11:15.100Z,6.37
2022-09-26T05:13:42.450Z,4.80
2022-09-26T05:16:11.038Z,4.40
2022-09-26T05:18:39.311Z,5.00
2022-09-26T05:21:07.492Z,3.97
2022-09-26T05:23:53.483Z,4.93
2022-09-26T05:26:25.742Z,4.93
2022-09-26T05:29:06.949Z,3.10
2022-09-26T05:31:37.636Z,4.00
2022-09-26T05:34:06.305Z,3.07
2022-09-26T05:36:33.550Z,2.93
2022-09-26T05:39:00.873Z,3.00
2022-09-26T05:41:32.188Z,2.57
2022-09-26T05:43:59.189Z,2.47
2022-09-26T05:46:31.927Z,1.93
2022-09-26T05:48:58.697Z,2.23
2022-09-26T05:51:25.429Z,3.70
2022-09-26T05:53:52.378Z,2.27
2022-09-26T05:56:19.810Z,2.00
2022-09-26T05:58:47.230Z,3.30
2022-09-26T06:01:16.238Z,3.70
2022-09-26T06:03:45.402Z,2.37
2022-09-26T06:06:15.067Z,4.57
2022-09-26T06:08:42.505Z,3.20
2022-09-26T06:11:13.052Z,3.60
2022-09-26T06:13:43.961Z,2.63
2022-09-26T06:16:19.428Z,4.73
2022-09-26T06:18:47.765Z,3.37
2022-09-26T06:21:17.067Z,5.23
2022-09-26T06:23:44.324Z,5.97
2022-09-26T06:26:20.019Z,3.47
2022-09-26T06:28:47.305Z,2.63
2022-09-26T06:31:18.188Z,4.67
2022-09-26T06:33:50.241Z,6.57
2022-09-26T06:36:17.112Z,8.53
2022-09-26T06:38:43.899Z,3.90
2022-09-26T06:41:10.949Z,6.93
2022-09-26T06:43:37.673Z,7.43
2022-09-26T06:46:09.540Z,8.97
2022-09-26T06:48:36.367Z,10.87
2022-09-26T06:51:03.188Z,7.30
2022-09-26T06:53:31.028Z,7.20
2022-09-26T06:56:01.637Z,8.60
2022-09-26T06:58:28.457Z,6.80
2022-09-26T07:00:59.525Z,9.80
2022-09-26T07:03:26.670Z,10.20
2022-09-26T07:05:57.047Z,11.57
2022-09-26T07:08:43.435Z,12.20
2022-09-26T07:11:32.761Z,9.57
2022-09-26T07:14:04.788Z,9.57
2022-09-26T07:16:32.561Z,9.70
2022-09-26T07:18:59.333Z,8.50
2022-09-26T07:21:26.188Z,9.87
2022-09-26T07:23:56.852Z,12.27
2022-09-26T07:26:23.575Z,20.00
2022-09-26T07:28:54.461Z,14.50
2022-09-26T07:31:23.632Z,15.93
2022-09-26T07:33:50.630Z,18.47
2022-09-26T07:36:18.506Z,14.97
2022-09-26T07:38:48.514Z,18.30
2022-09-26T07:41:15.749Z,24.63
2022-09-26T07:44:30.235Z,13.53
2022-09-26T07:46:48.727Z,15.37
2022-09-26T07:49:34.204Z,20.20
2022-09-26T07:52:01.122Z,16.93
2022-09-26T07:54:27.845Z,15.07
2022-09-26T07:56:55.200Z,19.77
2022-09-26T07:59:23.018Z,18.17
2022-09-26T08:01:49.905Z,15.20
2022-09-26T08:04:18.684Z,18.00
2022-09-26T08:06:45.848Z,17.53
2022-09-26T08:09:13.250Z,21.30
2022-09-26T08:11:41.931Z,17.60
2022-09-26T08:14:09.033Z,20.13
2022-09-26T08:16:39.612Z,21.63
2022-09-26T08:19:07.904Z,22.83
2022-09-26T08:21:35.345Z,23.63
2022-09-26T08:24:02.740Z,22.13
2022-09-26T08:26:29.518Z,22.23
2022-09-26T08:28:56.231Z,20.17
2022-09-26T08:31:23.347Z,23.00
2022-09-26T08:33:50.169Z,20.33
2022-09-26T08:36:16.984Z,21.63
2022-09-26T08:38:44.095Z,23.20
2022-09-26T08:41:39.472Z,22.33
2022-09-26T08:44:26.294Z,19.20
2022-09-26T08:47:05.653Z,23.33
2022-09-26T08:49:39.787Z,17.17
2022-09-26T08:52:45.878Z,16.90
2022-09-26T08:55:20.855Z,19.00
2022-09-26T08:57:55.893Z,19.67
2022-09-26T09:00:30.098Z,23.73
2022-09-26T09:03:18.306Z,20.80
2022-09-26T09:06:06.273Z,23.23
2022-09-26T09:08:41.088Z,16.63
2022-09-26T09:11:13.665Z,20.03
2022-09-26T09:13:52.128Z,18.77
2022-09-26T09:16:25.161Z,18.83
2022-09-26T09:19:13.689Z,23.33
2022-09-26T09:21:49.706Z,17.37
2022-09-26T09:24:23.602Z,14.07
2022-09-26T09:30:17.003Z,15.90
2022-09-26T09:33:08.684Z,13.70
2022-09-26T09:35:44.019Z,16.17
2022-09-26T09:38:20.661Z,10.53
2022-09-26T09:40:53.437Z,13.77
2022-09-26T09:43:45.960Z,14.73
2022-09-26T09:46:29.254Z,13.43
2022-09-26T09:49:26.564Z,14.03
2022-09-26T09:52:31.238Z,16.50
2022-09-26T09:55:16.088Z,23.43
2022-09-26T09:58:11.369Z,12.73
2022-09-26T10:00:51.367Z,22.00
2022-09-26T10:03:32.266Z,14.47
2022-09-26T10:06:01.356Z,18.07
2022-09-26T10:08:28.051Z,17.60
2022-09-26T10:11:11.197Z,16.63
2022-09-26T10:13:42.675Z,19.90
2022-09-26T10:16:15.305Z,14.03
2022-09-26T10:19:04.690Z,17.23
2022-09-26T10:21:35.343Z,15.93
2022-09-26T10:24:06.718Z,14.80
2022-09-26T10:26:35.194Z,14.53
2022-09-26T10:29:20.243Z,13.20
2022-09-26T10:31:55.505Z,10.87
2022-09-26T10:34:28.707Z,12.83
2022-09-26T10:36:56.332Z,17.10
2022-09-26T10:39:48.569Z,16.60
2022-09-26T10:42:16.444Z,13.33
2022-09-26T10:44:43.355Z,16.00
2022-09-26T10:47:16.877Z,16.03
2022-09-26T10:49:51.057Z,11.63
2022-09-26T10:52:47.309Z,12.53
2022-09-26T10:55:27.833Z,13.90
2022-09-26T10:57:58.627Z,13.80
2022-09-26T11:00:37.239Z,9.60
2022-09-26T11:03:16.377Z,13.50
2022-09-26T11:05:57.544Z,12.40
2022-09-26T11:08:32.656Z,10.63
2022-09-26T11:11:13.851Z,12.57
2022-09-26T11:13:48.146Z,12.47
2022-09-26T11:16:20.160Z,11.53
2022-09-26T11:19:05.423Z,10.97
2022-09-26T11:21:56.640Z,9.00
2022-09-26T11:24:37.713Z,12.77
2022-09-26T11:27:33.737Z,8.63
2022-09-26T11:30:12.569Z,10.83
2022-09-26T11:32:43.157Z,8.20
2022-09-26T11:35:33.456Z,7.50
2022-09-26T11:38:39.123Z,7.47
2022-09-26T11:41:36.754Z,8.27
2022-09-26T11:44:19.829Z,7.43
2022-09-26T11:47:24.202Z,8.43
2022-09-26T11:50:02.959Z,9.90
2022-09-26T11:53:01.891Z,12.60
2022-09-26T11:55:50.446Z,14.53
2022-09-26T11:58:17.679Z,10.53
2022-09-26T12:01:16.906Z,10.50
2022-09-26T12:04:02.121Z,12.07
2022-09-26T12:06:55.167Z,10.43
2022-09-26T12:09:59.821Z,9.67
2022-09-26T12:13:04.919Z,9.07
2022-09-26T12:15:55.152Z,10.10
2022-09-26T12:19:05.333Z,12.27
2022-09-26T12:22:04.036Z,7.67
2022-09-26T12:25:02.032Z,8.67
2022-09-26T12:27:36.068Z,9.83
2022-09-26T12:30:11.341Z,10.97
2022-09-26T12:32:57.555Z,7.70
2022-09-26T12:35:29.381Z,11.17
2022-09-26T12:38:28.491Z,9.93
2022-09-26T12:40:56.452Z,11.87
2022-09-26T12:43:49.437Z,12.20
2022-09-26T12:46:35.072Z,11.60
2022-09-26T12:49:40.036Z,12.03
2022-09-26T12:52:22.530Z,10.83
2022-09-26T12:55:17.714Z,9.50
2022-09-26T12:58:18.449Z,11.83
2022-09-26T13:01:12.235Z,9.10
2022-09-26T13:03:49.444Z,9.40
2022-09-26T13:06:33.171Z,11.80
2022-09-26T13:09:18.432Z,8.90
2022-09-26T13:12:06.155Z,8.73
2022-09-26T13:15:07.780Z,9.23
2022-09-26T13:17:49.828Z,6.23
2022-09-26T13:20:27.266Z,10.30
2022-09-26T13:23:18.580Z,8.70
2022-09-26T13:25:54.481Z,10.73
2022-09-26T13:29:00.455Z,7.07
2022-09-26T13:31:40.500Z,7.20
2022-09-26T13:34:14.637Z,6.07
2022-09-26T13:36:43.548Z,6.43
2022-09-26T13:39:55.526Z,7.80
2022-09-26T13:42:58.311Z,6.67
2022-09-26T13:45:46.527Z,5.83
2022-09-26T13:48:46.493Z,7.53
2022-09-26T13:51:28.773Z,6.10
2022-09-26T13:54:11.576Z,6.83
2022-09-26T13:56:38.437Z,5.73
2022-09-26T13:59:09.663Z,8.00
2022-09-26T14:01:36.803Z,8.57
2022-09-26T14:04:18.318Z,9.07
2022-09-26T14:07:28.357Z,5.03
2022-09-26T14:10:20.603Z,7.40
2022-09-26T14:12:55.574Z,6.87
2022-09-26T14:15:25.946Z,7.03
2022-09-26T14:17:52.815Z,7.03
2022-09-26T14:20:29.751Z,4.07
2022-09-26T14:22:57.511Z,5.50
2022-09-26T14:25:46.232Z,5.90
2022-09-26T14:28:34.365Z,5.60
2022-09-26T14:31:18.004Z,7.40
2022-09-26T14:33:46.556Z,6.10
2022-09-26T14:36:32.007Z,4.50
2022-09-26T14:38:58.985Z,5.10
2022-09-26T14:41:30.141Z,8.27
2022-09-26T14:44:15.762Z,5.20
2022-09-26T14:46:43.133Z,6.43
2022-09-26T14:49:20.422Z,9.70
2022-09-26T14:51:49.911Z,6.90
2022-09-26T14:54:24.002Z,3.50
2022-09-26T14:57:00.210Z,5.13
2022-09-26T14:59:36.301Z,6.53
2022-09-26T15:02:21.737Z,6.13
2022-09-26T15:04:59.595Z,7.60
2022-09-26T15:07:31.195Z,4.07
2022-09-26T15:10:02.749Z,5.73
2022-09-26T15:12:44.202Z,3.47
2022-09-26T15:15:19.601Z,4.83
2022-09-26T15:17:52.703Z,5.67
2022-09-26T15:20:22.787Z,7.07
2022-09-26T15:22:50.173Z,4.87
2022-09-26T15:25:24.251Z,2.47
2022-09-26T15:27:54.147Z,2.83
2022-09-26T15:30:25.378Z,4.13
2022-09-26T15:32:59.330Z,2.87
2022-09-26T15:35:27.314Z,3.37
2022-09-26T15:38:00.887Z,6.40
2022-09-26T15:40:30.409Z,4.40
2022-09-26T15:43:11.630Z,6.03
2022-09-26T15:45:47.602Z,5.00
2022-09-26T15:48:20.333Z,3.20
2022-09-26T15:50:54.488Z,5.00
2022-09-26T15:53:26.981Z,5.30
2022-09-26T15:56:18.055Z,3.93
2022-09-26T15:58:52.847Z,3.73
2022-09-26T16:01:22.595Z,4.37
2022-09-26T16:04:07.746Z,3.33
2022-09-26T16:10:39.752Z,2.73
2022-09-26T16:13:23.946Z,3.67
2022-09-26T16:16:12.818Z,4.07
2022-09-26T16:18:47.263Z,2.73
2022-09-26T16:21:24.400Z,4.03
2022-09-26T16:23:54.026Z,3.67
2022-09-26T16:26:41.305Z,3.57
2022-09-26T16:29:08.856Z,2.43
2022-09-26T16:31:45.337Z,6.00
2022-09-26T16:34:38.230Z,3.23
2022-09-26T16:37:16.287Z,2.20
2022-09-26T16:39:53.129Z,3.43
2022-09-26T16:42:22.997Z,1.67
2022-09-26T16:44:54.264Z,6.80
2022-09-26T16:47:47.875Z,3.03
2022-09-26T16:50:25.362Z,5.07
2022-09-26T16:52:52.654Z,3.37
2022-09-26T16:55:20.258Z,5.07
2022-09-26T16:58:00.120Z,2.80
2022-09-26T17:00:52.168Z,5.03
2022-09-26T17:03:29.287Z,5.63
2022-09-26T17:05:58.107Z,2.97
2022-09-26T17:08:26.534Z,5.77
2022-09-26T17:11:02.033Z,3.13
2022-09-26T17:13:33.138Z,3.90
2022-09-26T17:16:03.757Z,3.33
2022-09-26T17:18:33.260Z,4.73
2022-09-26T17:21:00.590Z,5.20
2022-09-26T17:23:39.882Z,5.37
2022-09-26T17:26:12.230Z,6.83
2022-09-26T17:28:45.314Z,4.87
2022-09-26T17:31:20.014Z,5.03
2022-09-26T17:33:49.657Z,7.13
2022-09-26T17:36:28.381Z,3.83
2022-09-26T17:38:59.477Z,7.33
2022-09-26T17:41:27.853Z,4.03
2022-09-26T17:43:59.006Z,6.77
2022-09-26T17:46:26.125Z,4.60
2022-09-26T17:48:54.398Z,7.77
2022-09-26T17:51:22.017Z,7.33
2022-09-26T17:53:52.568Z,4.13
2022-09-26T17:56:20.753Z,3.20
2022-09-26T17:58:48.896Z,5.07
2022-09-26T18:01:30.380Z,6.70
2022-09-26T18:04:02.750Z,5.17
2022-09-26T18:06:32.922Z,3.73
2022-09-26T18:09:05.360Z,5.83
2022-09-26T18:11:34.475Z,6.50
2022-09-26T18:14:04.342Z,6.97
2022-09-26T18:16:31.131Z,5.63
2022-09-26T18:19:00.261Z,5.60
2022-09-26T18:21:30.315Z,6.87
2022-09-26T18:24:01.705Z,5.07
2022-09-26T18:26:34.067Z,5.40
2022-09-26T18:29:07.985Z,6.20
2022-09-26T18:31:41.056Z,7.23
2022-09-26T18:34:16.360Z,9.13
2022-09-26T18:36:44.241Z,5.97
2022-09-26T18:39:11.081Z,6.50
2022-09-26T18:41:39.604Z,11.03
2022-09-26T18:44:07.781Z,5.43
2022-09-26T18:46:36.372Z,5.47
2022-09-26T18:49:06.311Z,3.53
2022-09-26T18:51:33.665Z,5.13
2022-09-26T18:54:01.751Z,4.40
2022-09-26T18:56:49.719Z,7.47
2022-09-26T18:59:16.463Z,4.27
2022-09-26T19:01:43.755Z,4.47
2022-09-26T19:04:15.644Z,3.77
2022-09-26T19:06:45.033Z,2.63
2022-09-26T19:09:16.981Z,5.43
2022-09-26T19:11:44.311Z,5.13
2022-09-26T19:14:17.478Z,3.97
2022-09-26T19:16:47.274Z,2.43
2022-09-26T19:19:14.728Z,3.93
2022-09-26T19:21:48.356Z,5.20
2022-09-26T19:24:33.445Z,1.43
2022-09-26T19:27:19.111Z,4.03
2022-09-26T19:30:02.750Z,4.13
2022-09-26T19:32:41.634Z,3.87
2022-09-26T19:35:25.759Z,6.27
2022-09-26T19:37:53.165Z,3.07
2022-09-26T19:40:21.457Z,4.03
2022-09-26T19:42:48.972Z,1.97
2022-09-26T19:45:16.537Z,3.53
2022-09-26T19:47:47.245Z,3.10
2022-09-26T19:50:20.974Z,2.47
2022-09-26T19:52:50.390Z,3.50
2022-09-26T19:55:27.363Z,3.10
2022-09-26T19:57:57.526Z,2.17
2022-09-26T20:00:26.423Z,3.80
2022-09-26T20:05:56.436Z,4.30
2022-09-26T20:08:25.921Z,6.17
2022-09-26T20:10:55.420Z,3.50
2022-09-26T20:13:22.295Z,4.10
2022-09-26T20:15:55.472Z,4.50
2022-09-26T20:18:23.834Z,3.20
2022-09-26T20:20:59.903Z,4.57
2022-09-26T20:23:27.530Z,3.20
2022-09-26T20:25:55.483Z,5.43
2022-09-26T20:28:23.623Z,3.20
2022-09-26T20:30:54.592Z,4.87
2022-09-26T20:33:23.685Z,3.13
2022-09-26T20:36:04.667Z,5.13
2022-09-26T20:38:46.482Z,5.10
2022-09-26T20:41:25.115Z,8.40
2022-09-26T20:44:02.839Z,4.07
2022-09-26T20:46:47.340Z,6.00
2022-09-26T20:49:21.611Z,5.67
2022-09-26T20:51:50.223Z,7.67
2022-09-26T20:54:33.988Z,3.50
2022-09-26T20:57:03.821Z,3.30
2022-09-26T20:59:32.127Z,5.00
2022-09-26T21:01:59.983Z,4.57
2022-09-26T21:04:32.888Z,6.17
2022-09-26T21:06:59.708Z,5.00
2022-09-26T21:09:26.455Z,3.40
2022-09-26T21:11:53.341Z,5.27
2022-09-26T21:14:20.177Z,3.97
2022-09-26T21:16:50.619Z,5.10
2022-09-26T21:19:23.201Z,4.57
2022-09-26T21:21:53.308Z,4.07
2022-09-26T21:24:30.007Z,3.13
2022-09-26T21:26:57.086Z,3.43
2022-09-26T21:29:24.126Z,5.00
2022-09-26T21:31:53.387Z,4.27
2022-09-26T21:34:25.027Z,4.50
2022-09-26T21:36:54.659Z,6.57
2022-09-26T21:39:23.465Z,5.03
2022-09-26T21:41:53.605Z,4.43
2022-09-26T21:44:36.637Z,4.13
2022-09-26T21:47:03.378Z,2.37
2022-09-26T21:49:30.491Z,4.47
2022-09-26T21:52:07.010Z,5.57
2022-09-26T21:54:38.312Z,2.67
2022-09-26T21:57:10.520Z,4.40
2022-09-26T21:59:39.110Z,4.17
2022-09-26T22:02:06.088Z,4.40
2022-09-26T22:04:32.957Z,3.90
2022-09-26T22:06:59.764Z,2.50
2022-09-26T22:09:26.573Z,3.53
2022-09-26T22:11:53.309Z,3.47
2022-09-26T22:14:20.083Z,5.53
2022-09-26T22:16:46.862Z,5.87
2022-09-26T22:19:14.878Z,5.30
2022-09-26T22:21:42.081Z,4.07
2022-09-26T22:24:10.397Z,6.80
2022-09-26T22:26:37.305Z,5.53
2022-09-26T22:29:05.521Z,4.20
2022-09-26T22:31:32.262Z,4.00
2022-09-26T22:33:59.888Z,4.00
2022-09-26T22:36:27.335Z,4.87
2022-09-26T22:38:54.830Z,5.70
2022-09-26T22:41:21.871Z,5.60
2022-09-26T22:43:49.314Z,4.03
2022-09-26T22:46:16.406Z,9.23
2022-09-26T22:48:48.187Z,8.30
2022-09-26T22:51:16.456Z,6.00
2022-09-26T22:53:44.533Z,7.57
2022-09-26T22:56:14.957Z,5.47
2022-09-26T22:58:47.355Z,7.07
2022-09-26T23:01:17.041Z,6.03
2022-09-26T23:03:43.792Z,5.97
2022-09-26T23:06:11.282Z,3.10
2022-09-26T23:08:38.257Z,3.20
2022-09-26T23:11:07.037Z,4.23
2022-09-26T23:13:35.633Z,7.10
2022-09-26T23:16:10.151Z,5.17
2022-09-26T23:18:39.340Z,7.30
2022-09-26T23:21:08.225Z,5.87
2022-09-26T23:23:35.505Z,5.47
2022-09-26T23:26:02.609Z,7.67
2022-09-26T23:28:29.435Z,6.03
2022-09-26T23:31:04.801Z,5.10
2022-09-26T23:33:31.575Z,5.37
2022-09-26T23:35:58.846Z,6.13
2022-09-26T23:38:26.348Z,4.03
2022-09-26T23:40:53.236Z,4.90
2022-09-26T23:43:20.795Z,6.07
2022-09-26T23:45:47.935Z,7.80
2022-09-26T23:48:15.100Z,3.83
2022-09-26T23:50:44.487Z,7.37
2022-09-26T23:53:11.717Z,5.47
2022-09-26T23:55:38.511Z,7.50
2022-09-26T23:58:05.407Z,4.47
